Time;durP1;ratioP1;P1;durP2;ratioP2;P2;SDS_P1;SDS_P2;PMS_P1;PMS_P2;Temp;Humidity;BMP_temperature;BMP_pressure;BME280_temperature;BME280_humidity;BME280_pressure;Samples;Min_cycle;Max_cycle;Signal;HPM_P1;HPM_P2
2022/12/26 00:01:54;;;;;;;113.33;31.43;;;-1.60;99.90;;;;;;4129190;28;20260;-57
2022/12/26 00:03:56;;;;;;;68.17;26.90;;;-1.60;99.90;;;;;;4130562;28;20327;-57
2022/12/26 00:05:57;;;;;;;194.23;35.30;;;-1.60;99.90;;;;;;4129060;28;20264;-57
2022/12/26 00:07:58;;;;;;;91.37;30.73;;;-1.50;99.90;;;;;;4130899;28;20740;-60
2022/12/26 00:09:59;;;;;;;141.10;32.90;;;-1.50;99.90;;;;;;4129718;28;20264;-58
2022/12/26 00:12:00;;;;;;;77.43;27.83;;;-1.50;99.90;;;;;;4131014;28;20323;-58
2022/12/26 00:14:08;;;;;;;157.93;34.60;;;-1.50;99.90;;;;;;4129766;28;20756;-58
2022/12/26 00:16:13;;;;;;;156.23;36.90;;;-1.50;99.90;;;;;;4130559;28;20668;-58
2022/12/26 00:18:14;;;;;;;144.83;34.63;;;-1.60;99.90;;;;;;4129009;28;20363;-59
2022/12/26 00:20:15;;;;;;;139.23;34.87;;;-1.60;99.90;;;;;;4130832;28;20621;-61
2022/12/26 00:22:17;;;;;;;112.17;35.07;;;-1.70;99.90;;;;;;4129577;28;20589;-56
2022/12/26 00:24:18;;;;;;;75.20;29.50;;;-1.80;99.90;;;;;;4129956;28;20272;-57
2022/12/26 00:26:22;;;;;;;99.60;33.43;;;-1.80;99.90;;;;;;4128758;28;20327;-58
2022/12/26 00:28:23;;;;;;;161.90;37.47;;;-1.80;99.90;;;;;;4129769;28;20300;-59
2022/12/26 00:30:24;;;;;;;180.53;35.47;;;-1.90;99.90;;;;;;4128975;28;20676;-59
2022/12/26 00:32:25;;;;;;;172.97;35.97;;;-2.00;99.90;;;;;;4129777;28;20275;-59
2022/12/26 00:34:26;;;;;;;196.77;39.70;;;-2.10;99.90;;;;;;4130219;28;20271;-61
2022/12/26 00:36:31;;;;;;;160.23;36.20;;;-2.10;99.90;;;;;;4129258;28;20715;-58
2022/12/26 00:38:34;;;;;;;202.23;40.63;;;-2.20;99.90;;;;;;4130114;28;20367;-55
2022/12/26 00:40:35;;;;;;;136.57;32.80;;;-2.20;99.90;;;;;;4128112;28;20316;-59
2022/12/26 00:42:36;;;;;;;333.73;44.67;;;-2.30;99.90;;;;;;4130653;28;20315;-59
2022/12/26 00:44:37;;;;;;;297.80;40.00;;;-2.30;99.90;;;;;;4129510;28;20372;-59
2022/12/26 00:46:38;;;;;;;205.23;34.27;;;-2.40;99.90;;;;;;4129989;28;20276;-59
2022/12/26 00:48:39;;;;;;;196.27;32.57;;;-2.30;99.90;;;;;;4128452;28;20295;-58
2022/12/26 00:50:41;;;;;;;167.90;31.63;;;-2.40;99.90;;;;;;4130291;28;20590;-56
2022/12/26 00:52:42;;;;;;;98.77;23.90;;;-2.30;99.90;;;;;;4128384;28;20877;-57
2022/12/26 00:54:43;;;;;;;115.80;27.43;;;-2.30;99.90;;;;;;4129666;28;20311;-58
2022/12/26 00:56:44;;;;;;;115.03;27.97;;;-2.30;99.90;;;;;;4129184;28;20636;-58
2022/12/26 00:58:45;;;;;;;172.80;35.07;;;-2.40;99.90;;;;;;4128840;28;20331;-59
2022/12/26 01:00:47;;;;;;;111.80;29.33;;;-2.40;99.90;;;;;;4129679;28;20307;-56
2022/12/26 01:02:48;;;;;;;124.03;30.10;;;-2.50;99.90;;;;;;4128794;28;20331;-57
2022/12/26 01:04:49;;;;;;;127.67;32.33;;;-2.40;99.90;;;;;;4129899;28;20260;-58
2022/12/26 01:06:50;;;;;;;154.03;33.97;;;-2.40;99.90;;;;;;4128141;28;20648;-59
2022/12/26 01:08:52;;;;;;;90.07;29.03;;;-2.40;99.90;;;;;;4129307;28;20350;-57
2022/12/26 01:10:53;;;;;;;246.97;41.17;;;-2.30;99.90;;;;;;4128222;28;20277;-58
2022/12/26 01:12:54;;;;;;;231.40;40.50;;;-2.30;99.90;;;;;;4129915;28;20244;-59
2022/12/26 01:14:56;;;;;;;211.93;38.87;;;-2.30;99.90;;;;;;4128162;28;20272;-58
2022/12/26 01:16:57;;;;;;;136.10;32.67;;;-2.30;99.90;;;;;;4130020;28;20319;-58
2022/12/26 01:18:58;;;;;;;139.37;28.83;;;-2.20;99.90;;;;;;4127728;28;20273;-54
2022/12/26 01:21:02;;;;;;;149.00;33.07;;;-2.20;99.90;;;;;;4129840;28;20659;-58
2022/12/26 01:23:04;;;;;;;159.47;35.33;;;-2.20;99.90;;;;;;4128286;28;20272;-58
2022/12/26 01:25:05;;;;;;;113.07;29.90;;;-2.10;99.90;;;;;;4129689;28;20744;-57
2022/12/26 01:27:06;;;;;;;131.33;32.93;;;-2.00;99.90;;;;;;4128585;28;20299;-57
2022/12/26 01:29:08;;;;;;;138.73;31.00;;;-2.10;99.90;;;;;;4129347;28;20300;-58
2022/12/26 01:31:09;;;;;;;166.70;32.90;;;-2.00;99.90;;;;;;4129089;28;20315;-65
2022/12/26 01:33:10;;;;;;;125.30;29.60;;;-1.90;99.90;;;;;;4129087;28;20264;-56
2022/12/26 01:35:11;;;;;;;173.73;39.60;;;-1.90;99.90;;;;;;4129310;28;20264;-58
2022/12/26 01:37:14;;;;;;;134.40;31.80;;;-1.80;99.90;;;;;;4128501;28;20672;-61
2022/12/26 01:39:15;;;;;;;153.90;33.23;;;-1.80;99.90;;;;;;4129534;28;20629;-59
2022/12/26 01:41:18;;;;;;;102.30;31.50;;;-1.80;99.90;;;;;;4127914;28;20319;-61
2022/12/26 01:43:19;;;;;;;117.60;33.27;;;-1.70;99.90;;;;;;4128623;28;20272;-59
2022/12/26 01:45:26;;;;;;;105.33;29.70;;;-1.70;99.90;;;;;;4127765;28;20374;-58
2022/12/26 01:47:45;;;;;;;98.93;30.47;;;-1.70;99.90;;;;;;4129631;28;20260;-58
2022/12/26 01:49:51;;;;;;;95.93;30.93;;;-1.60;99.90;;;;;;4128247;28;20358;-61
2022/12/26 01:51:58;;;;;;;111.20;30.43;;;-1.50;99.90;;;;;;4128103;28;20288;-58
2022/12/26 01:54:02;;;;;;;70.43;27.73;;;-1.50;99.90;;;;;;4128326;28;20272;-57
2022/12/26 01:56:15;;;;;;;73.07;27.63;;;-1.50;99.90;;;;;;4129436;28;20328;-58
2022/12/26 01:58:20;;;;;;;59.53;26.20;;;-1.40;99.90;;;;;;4127764;28;20264;-56
2022/12/26 02:00:21;;;;;;;106.80;28.93;;;-1.40;99.90;;;;;;4129374;28;20410;-59
2022/12/26 02:02:27;;;;;;;62.33;26.60;;;-1.30;99.90;;;;;;4128286;28;20311;-60
2022/12/26 02:06:54;;;;;;;56.73;25.00;;;-1.30;99.90;;;;;;4128027;28;20319;-60
2022/12/26 02:08:55;;;;;;;72.17;28.27;;;-1.20;99.90;;;;;;4129273;28;20284;-59
2022/12/26 02:11:15;;;;;;;58.03;27.03;;;-1.20;99.90;;;;;;4127597;28;20276;-59
2022/12/26 02:13:18;;;;;;;68.63;27.07;;;-1.10;99.90;;;;;;4129198;28;20815;-56
2022/12/26 02:15:19;;;;;;;74.37;29.80;;;-1.10;99.90;;;;;;4127516;28;20272;-60
2022/12/26 02:17:20;;;;;;;65.93;26.07;;;-1.00;99.90;;;;;;4128296;28;20740;-60
2022/12/26 02:19:33;;;;;;;61.37;29.20;;;-1.00;99.90;;;;;;4127867;28;20291;-58
2022/12/26 02:21:47;;;;;;;69.07;26.53;;;-0.90;99.90;;;;;;4129043;28;20260;-59
2022/12/26 02:24:26;;;;;;;79.80;26.03;;;-0.80;99.90;;;;;;4127097;28;20276;-58
2022/12/26 02:26:54;;;;;;;107.60;28.80;;;-0.80;99.90;;;;;;4105459;28;20272;-62
2022/12/26 02:29:28;;;;;;;84.00;30.60;;;-0.80;99.90;;;;;;4128053;28;20288;-60
2022/12/26 02:31:38;;;;;;;84.90;27.77;;;-0.80;99.90;;;;;;4128712;28;20330;-58
2022/12/26 02:33:45;;;;;;;90.38;27.25;;;-0.80;99.90;;;;;;4128397;28;20291;-55
2022/12/26 02:36:15;;;;;;;122.43;31.80;;;-0.90;99.90;;;;;;4127980;28;20089;-59
2022/12/26 02:38:40;;;;;;;169.48;33.13;;;-0.90;99.90;;;;;;4098374;28;20268;-57
2022/12/26 02:41:13;;;;;;;160.30;30.93;;;-0.90;99.90;;;;;;4127962;28;20022;-58
2022/12/26 02:43:43;;;;;;;164.27;33.00;;;-0.90;99.90;;;;;;4128133;28;20280;-62
2022/12/26 02:48:28;;;;;;;118.23;28.30;;;-0.90;99.90;;;;;;4129320;28;20419;-59
2022/12/26 03:13:12;;;;;;;85.40;26.03;;;-0.70;99.90;;;;;;4131414;28;20342;-57
2022/12/26 03:15:17;;;;;;;69.27;25.73;;;-0.70;99.90;;;;;;4130817;28;20264;-60
2022/12/26 03:17:28;;;;;;;59.43;24.60;;;-0.70;99.90;;;;;;4131446;28;20311;-60
2022/12/26 03:19:31;;;;;;;46.00;23.17;;;-0.60;99.90;;;;;;4130573;28;20291;-58
2022/12/26 03:21:40;;;;;;;46.03;21.67;;;-0.60;99.90;;;;;;4130770;28;20743;-59
2022/12/26 03:23:43;;;;;;;44.13;20.47;;;-0.60;99.90;;;;;;4130827;28;20256;-65
2022/12/26 03:28:16;;;;;;;50.10;21.35;;;-0.40;99.90;;;;;;4130647;28;20326;-54
2022/12/26 03:32:43;;;;;;;37.77;19.77;;;-0.30;99.90;;;;;;4130475;28;20318;-57
2022/12/26 03:34:44;;;;;;;40.97;20.60;;;-0.30;99.90;;;;;;4131279;28;20295;-56
2022/12/26 03:37:12;;;;;;;41.13;19.70;;;-0.30;99.90;;;;;;4129722;28;20268;-58
2022/12/26 04:19:22;;;;;;;38.97;18.30;;;-0.20;99.90;;;;;;4130614;28;20276;-55
2022/12/26 04:20:50;;;;;;;39.03;17.63;;;0.20;99.90;;;;;;4129513;28;20347;-58
2022/12/26 04:45:15;;;;;;;27.55;13.45;;;0.60;99.90;;;;;;4130914;28;20319;-55
2022/12/26 04:47:17;;;;;;;30.10;14.33;;;0.70;99.90;;;;;;4129290;28;20054;-60
2022/12/26 04:51:38;;;;;;;27.75;14.25;;;0.80;99.90;;;;;;4129417;28;20334;-55
2022/12/26 04:53:39;;;;;;;31.87;15.60;;;0.80;99.90;;;;;;4129267;28;20438;-56
2022/12/26 04:55:40;;;;;;;29.53;13.30;;;0.80;99.90;;;;;;4128944;28;20264;-56
2022/12/26 04:57:42;;;;;;;30.90;13.97;;;0.80;99.90;;;;;;4130304;28;20252;-55
2022/12/26 04:59:43;;;;;;;27.37;13.07;;;0.80;99.90;;;;;;4128486;28;20372;-55
2022/12/26 05:11:04;;;;;;;28.00;13.40;;;0.90;99.90;;;;;;4130446;28;20334;-52
2022/12/26 05:13:05;;;;;;;28.23;14.37;;;0.80;99.90;;;;;;4111034;28;20332;-57
2022/12/26 05:15:07;;;;;;;22.73;11.70;;;0.90;99.90;;;;;;4129276;28;20276;-53
2022/12/26 05:28:55;;;;;;;26.87;12.57;;;0.90;99.90;;;;;;4129250;28;20088;-56
2022/12/26 05:30:57;;;;;;;27.47;14.50;;;0.90;99.90;;;;;;4128341;28;20354;-57
2022/12/26 05:35:18;;;;;;;28.33;14.27;;;0.80;99.90;;;;;;4128952;28;20334;-57
2022/12/26 05:37:19;;;;;;;31.30;14.83;;;0.90;99.90;;;;;;4128346;28;20330;-56
2022/12/26 05:39:20;;;;;;;27.53;13.90;;;0.90;99.90;;;;;;4128402;28;20268;-60
2022/12/26 05:41:22;;;;;;;26.40;14.03;;;0.90;99.90;;;;;;4128436;28;20327;-56
2022/12/26 05:43:23;;;;;;;26.33;14.00;;;1.10;99.90;;;;;;4127662;28;20311;-56
2022/12/26 05:45:24;;;;;;;27.50;14.43;;;1.10;99.90;;;;;;4129628;28;20283;-56
2022/12/26 05:47:26;;;;;;;24.30;13.33;;;1.20;99.90;;;;;;4127346;28;20338;-57
2022/12/26 05:49:27;;;;;;;27.93;14.10;;;1.20;99.90;;;;;;4128327;28;20387;-64
2022/12/26 05:51:28;;;;;;;22.03;11.70;;;1.30;99.90;;;;;;4128215;28;20326;-66
2022/12/26 05:53:31;;;;;;;25.17;12.17;;;1.20;99.90;;;;;;4128397;28;20268;-64
2022/12/26 05:55:32;;;;;;;22.20;12.23;;;1.10;99.90;;;;;;4128265;28;20748;-66
2022/12/26 05:57:33;;;;;;;26.07;12.80;;;1.00;99.90;;;;;;4129364;28;20244;-65
2022/12/26 05:59:34;;;;;;;25.20;12.97;;;1.00;99.90;;;;;;4127434;28;20268;-57
2022/12/26 06:01:35;;;;;;;21.60;11.87;;;1.00;99.90;;;;;;4128239;28;20806;-62
2022/12/26 06:03:37;;;;;;;24.63;13.33;;;1.00;99.90;;;;;;4127485;28;20346;-56
2022/12/26 06:05:38;;;;;;;22.33;12.00;;;1.00;99.90;;;;;;4128014;28;20268;-57
2022/12/26 06:07:40;;;;;;;23.63;12.27;;;1.10;99.90;;;;;;4128219;28;20725;-64
2022/12/26 06:09:41;;;;;;;21.20;11.70;;;1.10;99.90;;;;;;4128159;28;20284;-67
2022/12/26 06:11:42;;;;;;;23.63;12.67;;;1.10;99.90;;;;;;4129297;28;20260;-64
2022/12/26 06:13:43;;;;;;;23.80;12.10;;;1.10;99.90;;;;;;4127391;28;20271;-61
2022/12/26 06:15:44;;;;;;;18.37;10.80;;;1.10;99.90;;;;;;4128530;28;20280;-62
2022/12/26 06:17:46;;;;;;;19.43;11.13;;;1.10;99.90;;;;;;4127022;28;20272;-63
2022/12/26 06:19:47;;;;;;;22.30;11.00;;;1.10;99.90;;;;;;4128215;28;20284;-62
2022/12/26 06:21:48;;;;;;;20.17;11.30;;;1.00;99.90;;;;;;4127223;28;20264;-62
2022/12/26 06:23:49;;;;;;;22.03;10.93;;;1.00;99.90;;;;;;4128401;28;20400;-59
2022/12/26 06:25:56;;;;;;;25.33;10.67;;;1.00;99.90;;;;;;4127798;28;20625;-66
2022/12/26 06:27:57;;;;;;;19.27;10.73;;;1.00;99.90;;;;;;4111103;28;20273;-65
2022/12/26 06:29:59;;;;;;;21.93;11.60;;;1.00;99.90;;;;;;4127416;28;20296;-61
2022/12/26 06:32:00;;;;;;;24.77;12.50;;;1.00;99.90;;;;;;4128824;28;20350;-62
2022/12/26 06:34:01;;;;;;;22.97;11.53;;;1.00;99.90;;;;;;4127521;28;20644;-65
2022/12/26 06:36:23;;;;;;;26.43;13.03;;;1.10;99.90;;;;;;4128298;28;20257;-64
2022/12/26 06:38:25;;;;;;;19.70;11.93;;;1.10;99.90;;;;;;4129342;28;20326;-61
2022/12/26 06:40:26;;;;;;;22.73;11.10;;;1.00;99.90;;;;;;4131440;28;20276;-64
2022/12/26 06:42:27;;;;;;;23.27;11.80;;;1.10;99.90;;;;;;4131562;28;20330;-65
2022/12/26 06:44:28;;;;;;;23.73;12.20;;;1.10;99.90;;;;;;4131297;28;20323;-59
2022/12/26 06:46:30;;;;;;;19.93;11.20;;;1.10;99.90;;;;;;4131190;28;20280;-62
2022/12/26 06:48:31;;;;;;;24.40;11.97;;;1.10;99.90;;;;;;4130328;28;20358;-63
2022/12/26 06:50:35;;;;;;;21.93;11.83;;;1.20;99.90;;;;;;4131841;28;20303;-65
2022/12/26 06:52:36;;;;;;;22.97;11.20;;;1.20;99.90;;;;;;4131060;28;20272;-65
2022/12/26 06:54:38;;;;;;;21.57;12.37;;;1.20;99.90;;;;;;4132249;28;20736;-65
2022/12/26 06:56:39;;;;;;;23.93;13.40;;;1.20;99.90;;;;;;4129655;28;20327;-60
2022/12/26 06:58:41;;;;;;;19.33;10.47;;;1.30;99.90;;;;;;4131313;28;20276;-62
2022/12/26 07:00:42;;;;;;;21.00;11.87;;;1.20;99.90;;;;;;4130972;28;20343;-58
2022/12/26 07:02:43;;;;;;;21.37;11.23;;;1.20;99.90;;;;;;4132065;28;20675;-62
2022/12/26 07:04:44;;;;;;;22.40;11.60;;;1.20;99.90;;;;;;4130825;28;20318;-62
2022/12/26 07:06:45;;;;;;;22.10;12.27;;;1.30;99.90;;;;;;4131767;28;20276;-63
2022/12/26 07:08:46;;;;;;;24.87;12.73;;;1.30;99.90;;;;;;4130251;28;20252;-66
2022/12/26 07:10:48;;;;;;;26.53;12.40;;;1.30;99.90;;;;;;4130513;28;20295;-64
2022/12/26 07:12:49;;;;;;;20.47;12.07;;;1.30;99.90;;;;;;4131220;28;20260;-60
2022/12/26 07:14:50;;;;;;;24.97;13.20;;;1.30;99.90;;;;;;4131112;28;20660;-68
2022/12/26 07:16:51;;;;;;;25.47;12.67;;;1.30;99.90;;;;;;4131359;28;20268;-66
2022/12/26 07:18:53;;;;;;;22.17;12.10;;;1.30;99.90;;;;;;4129471;28;20866;-66
2022/12/26 07:20:54;;;;;;;26.83;13.70;;;1.30;99.90;;;;;;4131498;28;20268;-56
2022/12/26 07:22:56;;;;;;;27.27;13.37;;;1.30;99.90;;;;;;4129663;28;20276;-57
2022/12/26 07:24:57;;;;;;;21.97;11.90;;;1.40;99.90;;;;;;4130799;28;20272;-57
2022/12/26 07:26:58;;;;;;;23.53;12.93;;;1.40;99.90;;;;;;4130404;28;20264;-57
2022/12/26 07:28:59;;;;;;;22.37;12.70;;;1.40;99.90;;;;;;4130833;28;20369;-59
2022/12/26 07:31:00;;;;;;;21.53;12.57;;;1.40;99.90;;;;;;4130276;28;20296;-56
2022/12/26 07:33:01;;;;;;;25.63;13.70;;;1.40;99.90;;;;;;4131088;28;20364;-59
2022/12/26 07:35:03;;;;;;;25.93;14.40;;;1.40;99.90;;;;;;4130416;28;21054;-56
2022/12/26 07:37:04;;;;;;;27.93;14.73;;;1.40;99.90;;;;;;4131089;28;20322;-60
2022/12/26 07:39:05;;;;;;;30.00;13.80;;;1.40;99.90;;;;;;4130229;28;20586;-57
2022/12/26 07:43:28;;;;;;;27.30;13.27;;;1.50;99.90;;;;;;4099894;28;20311;-56
2022/12/26 07:45:29;;;;;;;23.50;13.17;;;1.50;99.90;;;;;;4130888;28;20802;-58
2022/12/26 07:47:30;;;;;;;23.33;12.20;;;1.50;99.90;;;;;;4130628;28;20653;-58
2022/12/26 07:49:31;;;;;;;24.53;12.83;;;1.50;99.90;;;;;;4129147;28;20256;-60
2022/12/26 07:51:32;;;;;;;23.57;13.10;;;1.60;99.90;;;;;;4129838;28;20288;-60
2022/12/26 07:53:34;;;;;;;24.50;12.70;;;1.60;99.90;;;;;;4130380;28;20318;-64
2022/12/26 07:55:35;;;;;;;24.20;13.23;;;1.60;99.90;;;;;;4131107;28;20629;-62
2022/12/26 07:57:36;;;;;;;25.10;13.40;;;1.70;99.90;;;;;;4129073;28;20299;-57
2022/12/26 07:59:37;;;;;;;25.67;13.00;;;1.70;99.90;;;;;;4131040;28;20256;-56
2022/12/26 08:01:38;;;;;;;19.93;11.97;;;1.70;99.90;;;;;;4129742;28;20798;-61
2022/12/26 08:03:39;;;;;;;23.83;13.67;;;1.80;99.90;;;;;;4129946;28;20731;-65
2022/12/26 08:05:44;;;;;;;19.13;10.30;;;1.80;99.90;;;;;;4129733;28;20268;-66
2022/12/26 08:07:47;;;;;;;20.83;11.00;;;1.80;99.90;;;;;;4130688;28;20706;-60
2022/12/26 08:09:48;;;;;;;21.83;11.57;;;1.80;99.90;;;;;;4129259;28;20307;-63
2022/12/26 08:11:49;;;;;;;22.53;11.57;;;1.80;99.90;;;;;;4130818;28;20739;-57
2022/12/26 08:13:51;;;;;;;19.00;10.83;;;1.90;99.90;;;;;;4128585;28;20268;-63
2022/12/26 08:15:54;;;;;;;23.20;11.47;;;1.90;99.90;;;;;;4129760;28;20367;-60
2022/12/26 08:17:55;;;;;;;18.67;10.37;;;1.90;99.90;;;;;;4127718;28;20260;-55
2022/12/26 08:19:56;;;;;;;18.13;10.70;;;2.00;99.90;;;;;;4129213;28;20834;-58
2022/12/26 08:21:57;;;;;;;20.73;10.87;;;2.00;99.90;;;;;;4129637;28;20354;-60
2022/12/26 08:23:58;;;;;;;19.33;10.43;;;2.00;99.90;;;;;;4128758;28;20292;-60
2022/12/26 08:26:05;;;;;;;18.17;10.80;;;2.00;99.90;;;;;;4130339;28;20323;-62
2022/12/26 08:28:06;;;;;;;19.80;10.93;;;2.10;99.90;;;;;;4129194;28;20744;-61
2022/12/26 08:30:08;;;;;;;25.63;11.60;;;2.10;99.90;;;;;;4129861;28;20295;-60
2022/12/26 08:32:09;;;;;;;18.80;10.40;;;2.20;99.90;;;;;;4128577;28;20284;-58
2022/12/26 08:34:12;;;;;;;19.67;10.10;;;2.20;99.90;;;;;;4129815;28;20268;-58
2022/12/26 08:36:16;;;;;;;19.73;11.63;;;2.30;99.90;;;;;;4129357;28;20300;-64
2022/12/26 08:38:17;;;;;;;17.93;9.80;;;2.30;99.90;;;;;;4130554;28;20342;-55
2022/12/26 08:40:18;;;;;;;15.80;8.80;;;2.40;99.90;;;;;;4129241;28;20323;-54
2022/12/26 08:42:20;;;;;;;17.50;9.77;;;2.40;99.90;;;;;;4129822;28;20296;-58
2022/12/26 08:44:22;;;;;;;18.57;10.53;;;2.40;99.90;;;;;;4128368;28;20326;-59
2022/12/26 08:46:23;;;;;;;16.47;10.47;;;2.50;99.90;;;;;;4130574;28;20268;-61
2022/12/26 08:48:24;;;;;;;16.07;9.67;;;2.60;99.90;;;;;;4129406;28;20299;-59
2022/12/26 08:50:25;;;;;;;19.07;9.43;;;2.70;99.90;;;;;;4129888;28;20276;-56
2022/12/26 08:52:26;;;;;;;16.37;9.37;;;2.70;99.90;;;;;;4129201;28;20346;-59
2022/12/26 08:54:27;;;;;;;16.10;9.17;;;2.80;99.90;;;;;;4129711;28;20284;-57
2022/12/26 08:56:29;;;;;;;14.63;7.70;;;2.90;99.90;;;;;;4129594;28;20317;-55
2022/12/26 08:58:30;;;;;;;15.90;8.30;;;2.90;99.90;;;;;;4129293;28;20354;-58
2022/12/26 09:00:31;;;;;;;14.83;8.33;;;2.90;99.90;;;;;;4129448;28;20318;-58
2022/12/26 09:02:32;;;;;;;12.23;7.53;;;3.00;99.90;;;;;;4128813;28;20271;-57
2022/12/26 09:04:34;;;;;;;16.07;9.73;;;3.20;99.90;;;;;;4129893;28;20344;-60
2022/12/26 09:06:37;;;;;;;15.63;8.10;;;3.40;99.90;;;;;;4128733;28;20280;-61
2022/12/26 09:08:39;;;;;;;14.97;8.17;;;3.60;99.90;;;;;;4129362;28;20322;-57
2022/12/26 09:10:40;;;;;;;12.77;6.70;;;3.70;99.90;;;;;;4128738;28;20288;-60
2022/12/26 09:12:41;;;;;;;12.67;6.80;;;3.90;99.90;;;;;;4129621;28;20680;-61
2022/12/26 09:14:43;;;;;;;10.10;6.47;;;3.90;99.90;;;;;;4128823;28;20342;-59
2022/12/26 09:16:45;;;;;;;12.13;6.97;;;3.90;99.90;;;;;;4129989;28;20284;-57
2022/12/26 09:18:47;;;;;;;11.43;7.30;;;3.80;99.90;;;;;;4128665;28;20322;-58
2022/12/26 09:20:48;;;;;;;11.27;6.47;;;3.80;99.90;;;;;;4111558;28;20352;-60
2022/12/26 09:22:49;;;;;;;13.53;6.87;;;3.90;99.90;;;;;;4127760;28;20269;-56
2022/12/26 09:24:50;;;;;;;8.93;6.03;;;4.00;99.90;;;;;;4129453;28;20643;-56
2022/12/26 09:26:52;;;;;;;13.33;6.37;;;3.90;99.90;;;;;;4128474;28;20323;-59
2022/12/26 09:28:53;;;;;;;11.57;6.57;;;3.90;99.90;;;;;;4128099;28;20283;-57
2022/12/26 09:30:59;;;;;;;8.87;6.33;;;4.00;99.90;;;;;;4129221;28;20398;-61
2022/12/26 09:33:02;;;;;;;11.73;6.67;;;4.00;99.90;;;;;;4128642;28;20311;-58
2022/12/26 09:35:05;;;;;;;10.50;6.20;;;4.00;99.90;;;;;;4128640;28;20272;-58
2022/12/26 09:37:06;;;;;;;13.00;6.97;;;4.00;99.90;;;;;;4127612;28;20368;-60
2022/12/26 09:39:07;;;;;;;11.37;6.47;;;4.00;99.90;;;;;;4128994;28;20322;-57
2022/12/26 09:41:23;;;;;;;8.77;6.00;;;4.00;99.90;;;;;;4127707;28;20280;-56
2022/12/26 09:43:52;;;;;;;10.80;6.20;;;4.10;99.90;;;;;;4129413;28;20268;-59
2022/12/26 09:46:06;;;;;;;9.47;6.20;;;4.20;99.90;;;;;;4128216;28;20732;-59
2022/12/26 09:48:36;;;;;;;13.73;7.13;;;4.20;99.90;;;;;;4129125;28;20256;-58
2022/12/26 09:50:39;;;;;;;13.98;7.30;;;4.30;99.90;;;;;;4127603;28;20370;-60
2022/12/26 09:52:59;;;;;;;11.03;5.93;;;4.30;99.90;;;;;;4128813;28;20022;-59
2022/12/26 09:55:12;;;;;;;10.32;6.55;;;4.20;99.90;;;;;;4111185;28;20265;-61
2022/12/26 09:57:22;;;;;;;9.53;5.97;;;4.20;99.90;;;;;;4127800;28;20376;-59
2022/12/26 09:59:25;;;;;;;10.70;6.90;;;4.30;99.90;;;;;;4129020;28;20731;-58
2022/12/26 10:01:32;;;;;;;11.73;6.70;;;4.30;99.90;;;;;;4128556;28;20276;-59
2022/12/26 10:03:48;;;;;;;9.90;6.33;;;4.40;99.90;;;;;;4128717;28;20268;-58
2022/12/26 10:06:10;;;;;;;9.43;5.73;;;4.40;99.90;;;;;;4128080;28;20323;-61
2022/12/26 10:08:23;;;;;;;12.17;6.73;;;4.40;99.90;;;;;;4128957;28;20342;-59
2022/12/26 10:10:45;;;;;;;10.87;6.57;;;4.30;99.90;;;;;;4128123;28;20288;-60
2022/12/26 10:12:57;;;;;;;10.33;6.20;;;4.30;99.90;;;;;;4128103;28;20633;-58
2022/12/26 10:15:29;;;;;;;10.47;6.07;;;4.30;99.90;;;;;;4127747;28;20276;-61
2022/12/26 10:17:54;;;;;;;;;;;4.30;99.90;;;;;;4129726;28;20268;-60
2022/12/26 10:20:18;;;;;;;13.53;6.90;;;4.20;99.90;;;;;;4117373;28;20336;-57
2022/12/26 10:22:40;;;;;;;14.10;7.23;;;4.10;99.90;;;;;;4128264;28;20339;-59
2022/12/26 10:24:43;;;;;;;12.60;7.17;;;4.00;99.90;;;;;;4127860;28;20325;-58
2022/12/26 10:26:51;;;;;;;13.57;7.63;;;4.00;99.90;;;;;;4129009;28;20740;-60
2022/12/26 10:29:14;;;;;;;16.40;8.60;;;4.00;99.90;;;;;;4127919;28;20660;-58
2022/12/26 10:31:24;;;;;;;14.07;8.07;;;3.90;99.90;;;;;;4128030;28;20339;-64
2022/12/26 10:33:44;;;;;;;17.90;9.35;;;3.90;99.90;;;;;;4127438;28;20752;-58
2022/12/26 10:35:46;;;;;;;14.15;8.45;;;3.90;99.90;;;;;;4127945;28;20050;-61
2022/12/26 10:37:49;;;;;;;14.17;8.77;;;4.00;99.90;;;;;;4127018;28;20038;-60
2022/12/26 10:40:05;;;;;;;14.83;8.43;;;4.10;99.90;;;;;;4128072;28;20287;-58
2022/12/26 10:42:40;;;;;;;12.60;7.90;;;4.20;99.90;;;;;;4126876;28;20284;-60
2022/12/26 10:44:41;;;;;;;15.37;8.10;;;4.20;99.90;;;;;;4128205;28;20268;-59
2022/12/26 10:46:57;;;;;;;13.13;8.20;;;4.10;99.90;;;;;;4128111;28;20314;-58
2022/12/26 10:48:58;;;;;;;14.37;8.00;;;4.10;99.90;;;;;;4128169;28;20372;-60
2022/12/26 10:50:59;;;;;;;15.70;9.10;;;4.10;99.90;;;;;;4127908;28;20699;-56
2022/12/26 10:53:05;;;;;;;17.47;9.30;;;4.10;99.90;;;;;;4128459;28;20311;-56
2022/12/26 10:55:13;;;;;;;14.83;7.33;;;4.20;99.90;;;;;;4127817;28;20295;-59
2022/12/26 10:57:15;;;;;;;16.87;9.20;;;4.20;99.90;;;;;;4127953;28;20272;-60
2022/12/26 10:59:21;;;;;;;14.80;8.27;;;4.20;99.90;;;;;;4127687;28;20252;-59
2022/12/26 11:01:36;;;;;;;15.13;8.97;;;4.20;99.90;;;;;;4128246;28;20375;-58
2022/12/26 11:03:53;;;;;;;14.70;8.67;;;4.30;99.90;;;;;;4127607;28;20307;-60
2022/12/26 11:06:02;;;;;;;13.30;7.70;;;4.30;99.90;;;;;;4127691;28;20546;-60
2022/12/26 11:08:13;;;;;;;12.30;7.67;;;4.30;99.90;;;;;;4127055;28;20326;-58
2022/12/26 11:10:20;;;;;;;14.03;7.97;;;4.30;99.90;;;;;;4128489;28;20314;-57
2022/12/26 11:12:25;;;;;;;12.73;8.30;;;4.30;99.90;;;;;;4127087;28;20354;-58
2022/12/26 11:14:39;;;;;;;16.73;8.40;;;4.40;99.90;;;;;;4128601;28;20303;-56
2022/12/26 11:16:41;;;;;;;13.67;7.60;;;4.40;99.90;;;;;;4126659;28;20672;-58
2022/12/26 11:18:50;;;;;;;13.20;8.47;;;4.50;99.90;;;;;;4127858;28;20309;-55
2022/12/26 11:20:52;;;;;;;14.17;8.40;;;4.60;99.90;;;;;;4127422;28;20316;-56
2022/12/26 11:22:53;;;;;;;13.97;8.30;;;4.50;99.90;;;;;;4127825;28;20338;-58
2022/12/26 11:25:10;;;;;;;15.63;8.83;;;4.50;99.90;;;;;;4129490;28;20699;-58
2022/12/26 11:27:22;;;;;;;14.13;8.87;;;4.50;99.90;;;;;;4131547;28;20695;-58
2022/12/26 11:29:24;;;;;;;15.47;9.20;;;4.50;99.90;;;;;;4130503;28;20276;-56
2022/12/26 11:31:29;;;;;;;12.87;8.73;;;4.50;99.90;;;;;;4131478;28;20415;-57
2022/12/26 11:33:34;;;;;;;13.97;8.57;;;4.50;99.90;;;;;;4130403;28;20283;-57
2022/12/26 11:35:43;;;;;;;13.37;9.00;;;4.50;99.90;;;;;;4130667;28;20264;-58
2022/12/26 11:37:47;;;;;;;14.00;8.73;;;4.50;99.90;;;;;;4129361;28;20331;-58
2022/12/26 11:39:50;;;;;;;15.83;9.27;;;4.60;99.90;;;;;;4131244;28;20297;-63
2022/12/26 11:41:52;;;;;;;12.47;8.40;;;4.60;99.90;;;;;;4129287;28;20260;-58
2022/12/26 11:43:55;;;;;;;14.87;8.30;;;4.70;99.90;;;;;;4131304;28;20322;-56
2022/12/26 11:45:56;;;;;;;16.97;9.10;;;4.70;99.90;;;;;;4129734;28;20684;-60
2022/12/26 11:47:59;;;;;;;14.87;8.57;;;4.80;99.90;;;;;;4131296;28;20330;-59
2022/12/26 11:50:08;;;;;;;15.57;9.23;;;4.80;99.90;;;;;;4130162;28;20314;-57
2022/12/26 11:52:33;;;;;;;12.03;7.53;;;4.90;99.90;;;;;;4130895;28;20172;-60
2022/12/26 11:54:48;;;;;;;15.63;8.80;;;4.80;99.90;;;;;;4129287;28;20335;-60
2022/12/26 11:57:11;;;;;;;12.87;7.97;;;4.80;99.90;;;;;;4131186;28;20617;-60
2022/12/26 11:59:22;;;;;;;13.30;8.23;;;4.70;99.90;;;;;;4129905;28;20322;-56
2022/12/26 12:01:23;;;;;;;13.38;8.52;;;4.80;99.90;;;;;;4130633;28;20322;-59
2022/12/26 12:03:30;;;;;;;13.70;9.23;;;4.80;99.90;;;;;;4129875;28;20034;-60
2022/12/26 12:05:51;;;;;;;16.23;7.97;;;4.80;99.90;;;;;;4130167;28;20350;-60
2022/12/26 12:08:07;;;;;;;13.32;7.45;;;4.80;99.90;;;;;;4129803;28;20267;-60
2022/12/26 12:10:26;;;;;;;11.83;7.60;;;4.80;99.90;;;;;;4129845;28;20097;-60
2022/12/26 12:12:33;;;;;;;13.63;9.23;;;4.90;99.90;;;;;;4129086;28;20354;-58
2022/12/26 12:14:59;;;;;;;13.67;8.10;;;5.00;99.90;;;;;;4130844;28;20732;-59
2022/12/26 12:17:26;;;;;;;10.13;6.83;;;5.00;99.90;;;;;;4129810;28;20051;-57
2022/12/26 12:19:35;;;;;;;13.43;8.83;;;5.00;99.90;;;;;;4130452;28;20280;-59
2022/12/26 12:21:39;;;;;;;14.33;8.13;;;5.00;99.90;;;;;;4129788;28;20319;-61
2022/12/26 12:24:01;;;;;;;11.63;7.47;;;5.10;99.90;;;;;;4130424;28;20307;-58
2022/12/26 12:26:28;;;;;;;12.73;7.57;;;5.10;99.90;;;;;;4129843;28;20625;-60
2022/12/26 12:28:56;;;;;;;12.77;8.00;;;5.10;99.90;;;;;;4129834;28;20264;-60
2022/12/26 12:31:18;;;;;;;12.97;8.10;;;5.00;99.90;;;;;;4130169;28;20284;-59
2022/12/26 12:33:50;;;;;;;13.27;7.40;;;5.00;99.90;;;;;;4129262;28;20490;-58
2022/12/26 12:36:31;;;;;;;14.70;8.20;;;5.10;99.90;;;;;;4129574;28;20268;-59
2022/12/26 12:38:53;;;;;;;14.77;8.20;;;5.10;99.90;;;;;;4121209;28;20046;-60
2022/12/26 12:41:18;;;;;;;16.73;8.43;;;5.20;99.90;;;;;;4130227;28;20276;-58
2022/12/26 12:43:31;;;;;;;11.13;7.57;;;5.20;99.90;;;;;;4121467;28;20361;-59
2022/12/26 12:45:38;;;;;;;18.20;8.20;;;5.20;99.90;;;;;;4129921;28;20806;-56
2022/12/26 12:47:41;;;;;;;12.53;7.87;;;5.30;99.90;;;;;;4129252;28;20026;-63
2022/12/26 12:50:01;;;;;;;9.83;7.10;;;5.40;99.90;;;;;;4112001;28;20439;-61